sensor_id;sensor_type;location;lat;lon;timestamp;P1;durP1;ratioP1;P2;durP2;ratioP2
36799;SDS011;22752;51.960;5.886;2023-04-20T00:00:29;3.60;;;1.67;;
36799;SDS011;22752;51.960;5.886;2023-04-20T00:02:55;4.27;;;1.90;;
36799;SDS011;22752;51.960;5.886;2023-04-20T00:05:20;6.47;;;2.47;;
36799;SDS011;22752;51.960;5.886;2023-04-20T00:07:47;4.10;;;1.93;;
36799;SDS011;22752;51.960;5.886;2023-04-20T00:10:13;6.20;;;2.10;;
36799;SDS011;22752;51.960;5.886;2023-04-20T00:12:40;6.67;;;2.87;;
36799;SDS011;22752;51.960;5.886;2023-04-20T00:15:06;5.50;;;2.00;;
36799;SDS011;22752;51.960;5.886;2023-04-20T00:17:32;4.43;;;1.80;;
36799;SDS011;22752;51.960;5.886;2023-04-20T00:19:58;5.47;;;1.80;;
36799;SDS011;22752;51.960;5.886;2023-04-20T00:22:24;5.60;;;2.30;;
36799;SDS011;22752;51.960;5.886;2023-04-20T00:24:50;4.73;;;2.03;;
36799;SDS011;22752;51.960;5.886;2023-04-20T00:27:16;3.90;;;1.93;;
36799;SDS011;22752;51.960;5.886;2023-04-20T00:29:42;4.07;;;1.93;;
36799;SDS011;22752;51.960;5.886;2023-04-20T00:32:07;3.50;;;2.00;;
36799;SDS011;22752;51.960;5.886;2023-04-20T00:34:33;7.03;;;2.17;;
36799;SDS011;22752;51.960;5.886;2023-04-20T00:36:59;4.97;;;2.00;;
36799;SDS011;22752;51.960;5.886;2023-04-20T00:39:25;4.97;;;2.13;;
36799;SDS011;22752;51.960;5.886;2023-04-20T00:41:51;4.47;;;1.80;;
36799;SDS011;22752;51.960;5.886;2023-04-20T00:44:17;6.57;;;2.30;;
36799;SDS011;22752;51.960;5.886;2023-04-20T00:46:42;5.30;;;2.20;;
36799;SDS011;22752;51.960;5.886;2023-04-20T00:49:08;8.00;;;2.23;;
36799;SDS011;22752;51.960;5.886;2023-04-20T00:51:34;8.23;;;2.30;;
36799;SDS011;22752;51.960;5.886;2023-04-20T00:54:00;5.10;;;2.00;;
36799;SDS011;22752;51.960;5.886;2023-04-20T00:56:25;6.73;;;2.20;;
36799;SDS011;22752;51.960;5.886;2023-04-20T00:58:51;5.50;;;2.20;;
36799;SDS011;22752;51.960;5.886;2023-04-20T01:01:17;4.93;;;2.07;;
36799;SDS011;22752;51.960;5.886;2023-04-20T01:03:43;10.37;;;2.63;;
36799;SDS011;22752;51.960;5.886;2023-04-20T01:06:09;4.60;;;2.20;;
36799;SDS011;22752;51.960;5.886;2023-04-20T01:08:44;3.53;;;2.20;;
36799;SDS011;22752;51.960;5.886;2023-04-20T01:11:11;7.00;;;2.47;;
36799;SDS011;22752;51.960;5.886;2023-04-20T01:13:37;5.20;;;2.30;;
36799;SDS011;22752;51.960;5.886;2023-04-20T01:16:02;3.90;;;2.50;;
36799;SDS011;22752;51.960;5.886;2023-04-20T01:18:28;5.20;;;2.70;;
36799;SDS011;22752;51.960;5.886;2023-04-20T01:21:04;3.47;;;2.40;;
36799;SDS011;22752;51.960;5.886;2023-04-20T01:23:33;6.27;;;2.37;;
36799;SDS011;22752;51.960;5.886;2023-04-20T01:25:59;7.10;;;2.40;;
36799;SDS011;22752;51.960;5.886;2023-04-20T01:28:24;7.20;;;2.70;;
36799;SDS011;22752;51.960;5.886;2023-04-20T01:30:50;4.17;;;2.40;;
36799;SDS011;22752;51.960;5.886;2023-04-20T01:33:16;7.93;;;2.67;;
36799;SDS011;22752;51.960;5.886;2023-04-20T01:35:42;4.93;;;2.63;;
36799;SDS011;22752;51.960;5.886;2023-04-20T01:38:07;5.60;;;2.50;;
36799;SDS011;22752;51.960;5.886;2023-04-20T01:40:33;3.93;;;2.70;;
36799;SDS011;22752;51.960;5.886;2023-04-20T01:42:59;10.07;;;2.73;;
36799;SDS011;22752;51.960;5.886;2023-04-20T01:45:24;7.37;;;2.73;;
36799;SDS011;22752;51.960;5.886;2023-04-20T01:47:50;6.80;;;2.90;;
36799;SDS011;22752;51.960;5.886;2023-04-20T01:50:16;3.50;;;2.47;;
36799;SDS011;22752;51.960;5.886;2023-04-20T01:52:41;6.37;;;3.10;;
36799;SDS011;22752;51.960;5.886;2023-04-20T01:55:07;8.37;;;2.90;;
36799;SDS011;22752;51.960;5.886;2023-04-20T01:57:33;7.77;;;2.67;;
36799;SDS011;22752;51.960;5.886;2023-04-20T02:00:00;3.80;;;2.67;;
36799;SDS011;22752;51.960;5.886;2023-04-20T02:02:25;8.70;;;2.90;;
36799;SDS011;22752;51.960;5.886;2023-04-20T02:04:51;6.80;;;3.13;;
36799;SDS011;22752;51.960;5.886;2023-04-20T02:07:17;4.90;;;2.90;;
36799;SDS011;22752;51.960;5.886;2023-04-20T02:09:43;7.10;;;2.97;;
36799;SDS011;22752;51.960;5.886;2023-04-20T02:12:09;7.03;;;3.00;;
36799;SDS011;22752;51.960;5.886;2023-04-20T02:14:34;4.80;;;2.87;;
36799;SDS011;22752;51.960;5.886;2023-04-20T02:17:00;6.57;;;3.10;;
36799;SDS011;22752;51.960;5.886;2023-04-20T02:19:26;6.27;;;2.97;;
36799;SDS011;22752;51.960;5.886;2023-04-20T02:21:51;5.23;;;2.73;;
36799;SDS011;22752;51.960;5.886;2023-04-20T02:24:17;6.13;;;2.70;;
36799;SDS011;22752;51.960;5.886;2023-04-20T02:26:43;7.17;;;2.90;;
36799;SDS011;22752;51.960;5.886;2023-04-20T02:29:08;4.20;;;3.10;;
36799;SDS011;22752;51.960;5.886;2023-04-20T02:31:34;4.63;;;2.80;;
36799;SDS011;22752;51.960;5.886;2023-04-20T02:34:00;5.53;;;3.33;;
36799;SDS011;22752;51.960;5.886;2023-04-20T02:36:26;6.30;;;2.70;;
36799;SDS011;22752;51.960;5.886;2023-04-20T02:38:52;5.33;;;3.10;;
36799;SDS011;22752;51.960;5.886;2023-04-20T02:41:17;4.50;;;2.90;;
36799;SDS011;22752;51.960;5.886;2023-04-20T02:43:43;6.40;;;2.70;;
36799;SDS011;22752;51.960;5.886;2023-04-20T02:46:08;5.93;;;3.10;;
36799;SDS011;22752;51.960;5.886;2023-04-20T02:48:34;4.60;;;2.70;;
36799;SDS011;22752;51.960;5.886;2023-04-20T02:51:00;5.17;;;2.90;;
36799;SDS011;22752;51.960;5.886;2023-04-20T02:53:26;6.87;;;3.27;;
36799;SDS011;22752;51.960;5.886;2023-04-20T02:55:51;6.17;;;2.77;;
36799;SDS011;22752;51.960;5.886;2023-04-20T02:58:17;7.37;;;2.83;;
36799;SDS011;22752;51.960;5.886;2023-04-20T03:00:42;6.90;;;3.40;;
36799;SDS011;22752;51.960;5.886;2023-04-20T03:03:08;5.37;;;2.77;;
36799;SDS011;22752;51.960;5.886;2023-04-20T03:05:34;4.57;;;2.83;;
36799;SDS011;22752;51.960;5.886;2023-04-20T03:08:00;6.57;;;3.17;;
36799;SDS011;22752;51.960;5.886;2023-04-20T03:10:26;4.57;;;3.13;;
36799;SDS011;22752;51.960;5.886;2023-04-20T03:12:51;6.80;;;3.17;;
36799;SDS011;22752;51.960;5.886;2023-04-20T03:15:17;7.63;;;3.00;;
36799;SDS011;22752;51.960;5.886;2023-04-20T03:17:43;5.17;;;3.40;;
36799;SDS011;22752;51.960;5.886;2023-04-20T03:20:08;9.93;;;3.10;;
36799;SDS011;22752;51.960;5.886;2023-04-20T03:22:35;3.87;;;2.80;;
36799;SDS011;22752;51.960;5.886;2023-04-20T03:25:01;5.23;;;3.10;;
36799;SDS011;22752;51.960;5.886;2023-04-20T03:27:27;6.53;;;3.17;;
36799;SDS011;22752;51.960;5.886;2023-04-20T03:29:52;5.73;;;3.20;;
36799;SDS011;22752;51.960;5.886;2023-04-20T03:32:18;4.37;;;2.90;;
36799;SDS011;22752;51.960;5.886;2023-04-20T03:34:43;8.07;;;3.00;;
36799;SDS011;22752;51.960;5.886;2023-04-20T03:37:09;3.73;;;2.87;;
36799;SDS011;22752;51.960;5.886;2023-04-20T03:39:35;7.00;;;3.30;;
36799;SDS011;22752;51.960;5.886;2023-04-20T03:42:00;6.33;;;3.20;;
36799;SDS011;22752;51.960;5.886;2023-04-20T03:44:26;6.17;;;3.20;;
36799;SDS011;22752;51.960;5.886;2023-04-20T03:46:51;9.30;;;3.20;;
36799;SDS011;22752;51.960;5.886;2023-04-20T03:49:21;7.27;;;3.23;;
36799;SDS011;22752;51.960;5.886;2023-04-20T03:51:48;4.40;;;3.23;;
36799;SDS011;22752;51.960;5.886;2023-04-20T03:54:13;4.17;;;2.90;;
36799;SDS011;22752;51.960;5.886;2023-04-20T03:56:39;6.13;;;3.30;;
36799;SDS011;22752;51.960;5.886;2023-04-20T03:59:05;7.40;;;3.73;;
36799;SDS011;22752;51.960;5.886;2023-04-20T04:01:30;6.93;;;3.10;;
36799;SDS011;22752;51.960;5.886;2023-04-20T04:03:56;10.03;;;3.47;;
36799;SDS011;22752;51.960;5.886;2023-04-20T04:06:22;6.50;;;3.40;;
36799;SDS011;22752;51.960;5.886;2023-04-20T04:08:47;5.57;;;2.80;;
36799;SDS011;22752;51.960;5.886;2023-04-20T04:11:13;5.20;;;3.00;;
36799;SDS011;22752;51.960;5.886;2023-04-20T04:13:38;5.00;;;3.07;;
36799;SDS011;22752;51.960;5.886;2023-04-20T04:16:04;7.40;;;3.80;;
36799;SDS011;22752;51.960;5.886;2023-04-20T04:18:30;5.93;;;3.60;;
36799;SDS011;22752;51.960;5.886;2023-04-20T04:20:57;10.20;;;3.43;;
36799;SDS011;22752;51.960;5.886;2023-04-20T04:23:23;8.07;;;3.33;;
36799;SDS011;22752;51.960;5.886;2023-04-20T04:25:48;5.33;;;2.90;;
36799;SDS011;22752;51.960;5.886;2023-04-20T04:28:15;5.37;;;3.30;;
36799;SDS011;22752;51.960;5.886;2023-04-20T04:30:41;5.13;;;3.07;;
36799;SDS011;22752;51.960;5.886;2023-04-20T04:33:06;7.70;;;2.90;;
36799;SDS011;22752;51.960;5.886;2023-04-20T04:35:34;7.13;;;3.40;;
36799;SDS011;22752;51.960;5.886;2023-04-20T04:37:59;5.27;;;2.73;;
36799;SDS011;22752;51.960;5.886;2023-04-20T04:40:26;5.83;;;3.30;;
36799;SDS011;22752;51.960;5.886;2023-04-20T04:42:51;6.17;;;3.40;;
36799;SDS011;22752;51.960;5.886;2023-04-20T04:45:17;6.10;;;3.10;;
36799;SDS011;22752;51.960;5.886;2023-04-20T04:47:43;6.47;;;3.40;;
36799;SDS011;22752;51.960;5.886;2023-04-20T04:50:09;6.63;;;3.23;;
36799;SDS011;22752;51.960;5.886;2023-04-20T04:52:35;6.47;;;3.57;;
36799;SDS011;22752;51.960;5.886;2023-04-20T04:55:01;5.60;;;3.30;;
36799;SDS011;22752;51.960;5.886;2023-04-20T04:57:27;5.33;;;2.77;;
36799;SDS011;22752;51.960;5.886;2023-04-20T04:59:53;5.73;;;3.10;;
36799;SDS011;22752;51.960;5.886;2023-04-20T05:02:19;6.47;;;3.43;;
36799;SDS011;22752;51.960;5.886;2023-04-20T05:04:44;5.60;;;3.37;;
36799;SDS011;22752;51.960;5.886;2023-04-20T05:07:10;7.17;;;3.60;;
36799;SDS011;22752;51.960;5.886;2023-04-20T05:09:38;5.43;;;3.23;;
36799;SDS011;22752;51.960;5.886;2023-04-20T05:12:04;6.17;;;3.77;;
36799;SDS011;22752;51.960;5.886;2023-04-20T05:14:31;7.37;;;3.63;;
36799;SDS011;22752;51.960;5.886;2023-04-20T05:16:57;9.20;;;3.07;;
36799;SDS011;22752;51.960;5.886;2023-04-20T05:19:24;6.47;;;3.23;;
36799;SDS011;22752;51.960;5.886;2023-04-20T05:21:50;7.63;;;2.90;;
36799;SDS011;22752;51.960;5.886;2023-04-20T05:24:15;6.37;;;3.43;;
36799;SDS011;22752;51.960;5.886;2023-04-20T05:26:41;6.10;;;3.10;;
36799;SDS011;22752;51.960;5.886;2023-04-20T05:29:07;6.13;;;3.60;;
36799;SDS011;22752;51.960;5.886;2023-04-20T05:31:33;5.47;;;3.30;;
36799;SDS011;22752;51.960;5.886;2023-04-20T05:33:58;6.43;;;3.63;;
36799;SDS011;22752;51.960;5.886;2023-04-20T05:36:25;5.77;;;3.17;;
36799;SDS011;22752;51.960;5.886;2023-04-20T05:38:52;7.77;;;3.53;;
36799;SDS011;22752;51.960;5.886;2023-04-20T05:41:17;6.27;;;3.50;;
36799;SDS011;22752;51.960;5.886;2023-04-20T05:43:43;6.13;;;3.43;;
36799;SDS011;22752;51.960;5.886;2023-04-20T05:46:09;11.23;;;3.50;;
36799;SDS011;22752;51.960;5.886;2023-04-20T05:48:35;5.30;;;3.10;;
36799;SDS011;22752;51.960;5.886;2023-04-20T05:51:00;6.17;;;3.30;;
36799;SDS011;22752;51.960;5.886;2023-04-20T05:53:26;6.70;;;4.03;;
36799;SDS011;22752;51.960;5.886;2023-04-20T05:55:51;5.97;;;3.30;;
36799;SDS011;22752;51.960;5.886;2023-04-20T05:58:17;6.95;;;3.45;;
36799;SDS011;22752;51.960;5.886;2023-04-20T06:00:43;9.00;;;3.60;;
36799;SDS011;22752;51.960;5.886;2023-04-20T06:03:09;6.30;;;4.00;;
36799;SDS011;22752;51.960;5.886;2023-04-20T06:05:34;3.97;;;3.30;;
36799;SDS011;22752;51.960;5.886;2023-04-20T06:08:00;4.80;;;3.30;;
36799;SDS011;22752;51.960;5.886;2023-04-20T06:10:25;5.07;;;3.33;;
36799;SDS011;22752;51.960;5.886;2023-04-20T06:12:56;8.30;;;4.10;;
36799;SDS011;22752;51.960;5.886;2023-04-20T06:15:22;7.17;;;3.40;;
36799;SDS011;22752;51.960;5.886;2023-04-20T06:17:47;5.03;;;3.20;;
36799;SDS011;22752;51.960;5.886;2023-04-20T06:20:13;6.27;;;3.50;;
36799;SDS011;22752;51.960;5.886;2023-04-20T06:22:42;6.00;;;3.60;;
36799;SDS011;22752;51.960;5.886;2023-04-20T06:25:09;7.20;;;3.17;;
36799;SDS011;22752;51.960;5.886;2023-04-20T06:27:35;4.47;;;3.23;;
36799;SDS011;22752;51.960;5.886;2023-04-20T06:30:00;7.33;;;3.10;;
36799;SDS011;22752;51.960;5.886;2023-04-20T06:32:27;4.33;;;3.10;;
36799;SDS011;22752;51.960;5.886;2023-04-20T06:34:53;7.93;;;3.57;;
36799;SDS011;22752;51.960;5.886;2023-04-20T06:37:19;8.77;;;3.40;;
36799;SDS011;22752;51.960;5.886;2023-04-20T06:39:45;6.87;;;3.53;;
36799;SDS011;22752;51.960;5.886;2023-04-20T06:42:10;9.30;;;3.70;;
36799;SDS011;22752;51.960;5.886;2023-04-20T06:44:37;7.43;;;3.67;;
36799;SDS011;22752;51.960;5.886;2023-04-20T06:47:03;8.13;;;3.43;;
36799;SDS011;22752;51.960;5.886;2023-04-20T06:49:29;5.83;;;3.47;;
36799;SDS011;22752;51.960;5.886;2023-04-20T06:51:55;6.87;;;3.37;;
36799;SDS011;22752;51.960;5.886;2023-04-20T06:54:20;7.97;;;3.50;;
36799;SDS011;22752;51.960;5.886;2023-04-20T06:56:46;5.87;;;3.63;;
36799;SDS011;22752;51.960;5.886;2023-04-20T06:59:12;5.10;;;3.40;;
36799;SDS011;22752;51.960;5.886;2023-04-20T07:01:40;6.23;;;3.20;;
36799;SDS011;22752;51.960;5.886;2023-04-20T07:04:06;7.93;;;3.93;;
36799;SDS011;22752;51.960;5.886;2023-04-20T07:06:31;7.30;;;4.03;;
36799;SDS011;22752;51.960;5.886;2023-04-20T07:08:57;6.97;;;4.10;;
36799;SDS011;22752;51.960;5.886;2023-04-20T07:11:23;6.73;;;4.00;;
36799;SDS011;22752;51.960;5.886;2023-04-20T07:13:49;8.77;;;4.20;;
36799;SDS011;22752;51.960;5.886;2023-04-20T07:16:15;5.70;;;4.20;;
36799;SDS011;22752;51.960;5.886;2023-04-20T07:18:40;6.20;;;4.20;;
36799;SDS011;22752;51.960;5.886;2023-04-20T07:21:09;5.90;;;3.80;;
36799;SDS011;22752;51.960;5.886;2023-04-20T07:23:35;5.53;;;3.90;;
36799;SDS011;22752;51.960;5.886;2023-04-20T07:26:00;8.77;;;4.10;;
36799;SDS011;22752;51.960;5.886;2023-04-20T07:28:26;10.30;;;4.00;;
36799;SDS011;22752;51.960;5.886;2023-04-20T07:30:51;7.57;;;4.50;;
36799;SDS011;22752;51.960;5.886;2023-04-20T07:33:17;9.23;;;4.40;;
36799;SDS011;22752;51.960;5.886;2023-04-20T07:35:44;9.23;;;4.50;;
36799;SDS011;22752;51.960;5.886;2023-04-20T07:38:09;8.50;;;4.60;;
36799;SDS011;22752;51.960;5.886;2023-04-20T07:40:35;10.63;;;4.70;;
36799;SDS011;22752;51.960;5.886;2023-04-20T07:43:01;8.87;;;4.87;;
36799;SDS011;22752;51.960;5.886;2023-04-20T07:45:26;9.57;;;5.17;;
36799;SDS011;22752;51.960;5.886;2023-04-20T07:47:52;7.77;;;4.70;;
36799;SDS011;22752;51.960;5.886;2023-04-20T07:50:19;9.30;;;5.43;;
36799;SDS011;22752;51.960;5.886;2023-04-20T07:52:45;9.03;;;4.70;;
36799;SDS011;22752;51.960;5.886;2023-04-20T07:55:11;9.50;;;5.30;;
36799;SDS011;22752;51.960;5.886;2023-04-20T07:57:38;9.23;;;4.83;;
36799;SDS011;22752;51.960;5.886;2023-04-20T08:00:04;8.07;;;5.17;;
36799;SDS011;22752;51.960;5.886;2023-04-20T08:02:34;7.97;;;4.87;;
36799;SDS011;22752;51.960;5.886;2023-04-20T08:05:00;8.20;;;5.10;;
36799;SDS011;22752;51.960;5.886;2023-04-20T08:07:26;9.10;;;5.40;;
36799;SDS011;22752;51.960;5.886;2023-04-20T08:09:52;8.47;;;5.30;;
36799;SDS011;22752;51.960;5.886;2023-04-20T08:12:18;7.17;;;5.03;;
36799;SDS011;22752;51.960;5.886;2023-04-20T08:14:43;10.67;;;5.70;;
36799;SDS011;22752;51.960;5.886;2023-04-20T08:17:09;8.73;;;4.67;;
36799;SDS011;22752;51.960;5.886;2023-04-20T08:19:35;11.03;;;5.67;;
36799;SDS011;22752;51.960;5.886;2023-04-20T08:22:00;9.43;;;5.20;;
36799;SDS011;22752;51.960;5.886;2023-04-20T08:24:26;7.97;;;4.90;;
36799;SDS011;22752;51.960;5.886;2023-04-20T08:26:52;10.53;;;5.30;;
36799;SDS011;22752;51.960;5.886;2023-04-20T08:29:17;7.20;;;4.73;;
36799;SDS011;22752;51.960;5.886;2023-04-20T08:31:43;9.17;;;5.20;;
36799;SDS011;22752;51.960;5.886;2023-04-20T08:34:10;10.93;;;4.90;;
36799;SDS011;22752;51.960;5.886;2023-04-20T08:36:35;9.33;;;4.67;;
36799;SDS011;22752;51.960;5.886;2023-04-20T08:39:08;9.03;;;5.20;;
36799;SDS011;22752;51.960;5.886;2023-04-20T08:41:36;8.97;;;5.20;;
36799;SDS011;22752;51.960;5.886;2023-04-20T08:44:02;9.10;;;5.10;;
36799;SDS011;22752;51.960;5.886;2023-04-20T08:46:28;8.70;;;4.93;;
36799;SDS011;22752;51.960;5.886;2023-04-20T08:48:54;8.20;;;5.43;;
36799;SDS011;22752;51.960;5.886;2023-04-20T08:51:21;7.70;;;5.40;;
36799;SDS011;22752;51.960;5.886;2023-04-20T08:53:48;8.97;;;5.23;;
36799;SDS011;22752;51.960;5.886;2023-04-20T08:56:14;7.10;;;5.00;;
36799;SDS011;22752;51.960;5.886;2023-04-20T08:58:39;8.60;;;4.73;;
36799;SDS011;22752;51.960;5.886;2023-04-20T09:01:12;11.57;;;5.67;;
36799;SDS011;22752;51.960;5.886;2023-04-20T09:03:39;7.10;;;4.93;;
36799;SDS011;22752;51.960;5.886;2023-04-20T09:06:15;9.77;;;5.53;;
36799;SDS011;22752;51.960;5.886;2023-04-20T09:08:42;9.57;;;5.23;;
36799;SDS011;22752;51.960;5.886;2023-04-20T09:11:21;9.60;;;4.90;;
36799;SDS011;22752;51.960;5.886;2023-04-20T09:16:34;8.57;;;5.30;;
36799;SDS011;22752;51.960;5.886;2023-04-20T09:19:01;13.00;;;5.17;;
36799;SDS011;22752;51.960;5.886;2023-04-20T09:21:27;7.33;;;4.70;;
36799;SDS011;22752;51.960;5.886;2023-04-20T09:23:57;7.33;;;4.73;;
36799;SDS011;22752;51.960;5.886;2023-04-20T09:26:30;8.77;;;5.00;;
36799;SDS011;22752;51.960;5.886;2023-04-20T09:28:57;6.87;;;4.63;;
36799;SDS011;22752;51.960;5.886;2023-04-20T09:31:23;8.20;;;5.40;;
36799;SDS011;22752;51.960;5.886;2023-04-20T09:33:56;6.40;;;4.70;;
36799;SDS011;22752;51.960;5.886;2023-04-20T09:36:21;13.88;;;5.10;;
36799;SDS011;22752;51.960;5.886;2023-04-20T09:38:47;8.00;;;4.93;;
36799;SDS011;22752;51.960;5.886;2023-04-20T09:41:25;7.50;;;5.03;;
36799;SDS011;22752;51.960;5.886;2023-04-20T09:43:51;6.83;;;4.77;;
36799;SDS011;22752;51.960;5.886;2023-04-20T09:46:17;7.80;;;4.93;;
36799;SDS011;22752;51.960;5.886;2023-04-20T09:48:43;8.73;;;4.97;;
36799;SDS011;22752;51.960;5.886;2023-04-20T09:51:09;7.43;;;4.97;;
36799;SDS011;22752;51.960;5.886;2023-04-20T09:53:35;10.00;;;5.03;;
36799;SDS011;22752;51.960;5.886;2023-04-20T09:56:01;8.00;;;4.50;;
36799;SDS011;22752;51.960;5.886;2023-04-20T09:58:27;7.77;;;4.60;;
36799;SDS011;22752;51.960;5.886;2023-04-20T10:00:53;10.17;;;4.67;;
36799;SDS011;22752;51.960;5.886;2023-04-20T10:03:19;6.27;;;4.30;;
36799;SDS011;22752;51.960;5.886;2023-04-20T10:05:45;7.57;;;4.37;;
36799;SDS011;22752;51.960;5.886;2023-04-20T10:08:11;9.70;;;5.20;;
36799;SDS011;22752;51.960;5.886;2023-04-20T10:10:47;8.97;;;4.63;;
36799;SDS011;22752;51.960;5.886;2023-04-20T10:13:14;4.93;;;3.83;;
36799;SDS011;22752;51.960;5.886;2023-04-20T10:15:41;7.93;;;4.73;;
36799;SDS011;22752;51.960;5.886;2023-04-20T10:18:17;9.17;;;3.83;;
36799;SDS011;22752;51.960;5.886;2023-04-20T10:20:50;9.17;;;4.17;;
36799;SDS011;22752;51.960;5.886;2023-04-20T10:23:28;7.33;;;4.57;;
36799;SDS011;22752;51.960;5.886;2023-04-20T10:25:54;5.93;;;4.03;;
36799;SDS011;22752;51.960;5.886;2023-04-20T10:28:22;5.80;;;4.00;;
36799;SDS011;22752;51.960;5.886;2023-04-20T10:30:51;6.53;;;3.93;;
36799;SDS011;22752;51.960;5.886;2023-04-20T10:33:17;5.43;;;3.90;;
36799;SDS011;22752;51.960;5.886;2023-04-20T10:35:45;6.47;;;4.23;;
36799;SDS011;22752;51.960;5.886;2023-04-20T10:38:13;6.63;;;4.10;;
36799;SDS011;22752;51.960;5.886;2023-04-20T10:40:40;6.27;;;4.10;;
36799;SDS011;22752;51.960;5.886;2023-04-20T10:43:19;5.77;;;4.00;;
36799;SDS011;22752;51.960;5.886;2023-04-20T10:45:45;6.03;;;4.17;;
36799;SDS011;22752;51.960;5.886;2023-04-20T10:48:11;5.30;;;3.87;;
36799;SDS011;22752;51.960;5.886;2023-04-20T10:50:37;5.57;;;3.70;;
36799;SDS011;22752;51.960;5.886;2023-04-20T10:53:04;6.03;;;4.00;;
36799;SDS011;22752;51.960;5.886;2023-04-20T10:55:30;4.53;;;3.50;;
36799;SDS011;22752;51.960;5.886;2023-04-20T10:57:56;5.17;;;3.70;;
36799;SDS011;22752;51.960;5.886;2023-04-20T11:00:23;8.40;;;4.37;;
36799;SDS011;22752;51.960;5.886;2023-04-20T11:02:51;7.17;;;3.83;;
36799;SDS011;22752;51.960;5.886;2023-04-20T11:05:21;7.50;;;4.03;;
36799;SDS011;22752;51.960;5.886;2023-04-20T11:10:22;6.70;;;4.20;;
36799;SDS011;22752;51.960;5.886;2023-04-20T11:13:22;7.47;;;4.53;;
36799;SDS011;22752;51.960;5.886;2023-04-20T11:15:49;5.97;;;4.10;;
36799;SDS011;22752;51.960;5.886;2023-04-20T11:18:15;5.27;;;3.90;;
36799;SDS011;22752;51.960;5.886;2023-04-20T11:20:51;4.40;;;3.87;;
36799;SDS011;22752;51.960;5.886;2023-04-20T11:23:18;11.47;;;4.57;;
36799;SDS011;22752;51.960;5.886;2023-04-20T11:25:51;5.50;;;4.07;;
36799;SDS011;22752;51.960;5.886;2023-04-20T11:28:18;6.33;;;4.07;;
36799;SDS011;22752;51.960;5.886;2023-04-20T11:30:44;7.90;;;4.60;;
36799;SDS011;22752;51.960;5.886;2023-04-20T11:33:10;6.00;;;4.00;;
36799;SDS011;22752;51.960;5.886;2023-04-20T11:35:36;6.40;;;4.27;;
36799;SDS011;22752;51.960;5.886;2023-04-20T11:38:03;5.47;;;4.10;;
36799;SDS011;22752;51.960;5.886;2023-04-20T11:40:29;5.90;;;4.00;;
36799;SDS011;22752;51.960;5.886;2023-04-20T11:42:55;7.73;;;4.73;;
36799;SDS011;22752;51.960;5.886;2023-04-20T11:45:21;8.63;;;4.73;;
36799;SDS011;22752;51.960;5.886;2023-04-20T11:47:47;7.93;;;4.50;;
36799;SDS011;22752;51.960;5.886;2023-04-20T11:50:13;5.90;;;4.73;;
36799;SDS011;22752;51.960;5.886;2023-04-20T11:52:39;5.53;;;4.20;;
36799;SDS011;22752;51.960;5.886;2023-04-20T11:55:05;7.60;;;4.83;;
36799;SDS011;22752;51.960;5.886;2023-04-20T11:57:31;7.70;;;4.80;;
36799;SDS011;22752;51.960;5.886;2023-04-20T11:59:57;10.50;;;5.20;;
36799;SDS011;22752;51.960;5.886;2023-04-20T12:02:23;6.73;;;4.80;;
36799;SDS011;22752;51.960;5.886;2023-04-20T12:04:48;7.70;;;4.83;;
36799;SDS011;22752;51.960;5.886;2023-04-20T12:07:14;6.43;;;4.60;;
36799;SDS011;22752;51.960;5.886;2023-04-20T12:09:40;5.43;;;4.50;;
36799;SDS011;22752;51.960;5.886;2023-04-20T12:12:06;6.70;;;4.83;;
36799;SDS011;22752;51.960;5.886;2023-04-20T12:14:35;7.80;;;5.03;;
36799;SDS011;22752;51.960;5.886;2023-04-20T12:17:01;8.37;;;5.27;;
36799;SDS011;22752;51.960;5.886;2023-04-20T12:19:28;8.33;;;4.87;;
36799;SDS011;22752;51.960;5.886;2023-04-20T12:21:54;9.50;;;5.13;;
36799;SDS011;22752;51.960;5.886;2023-04-20T12:24:20;7.40;;;5.17;;
36799;SDS011;22752;51.960;5.886;2023-04-20T12:26:46;7.37;;;4.77;;
36799;SDS011;22752;51.960;5.886;2023-04-20T12:29:12;6.57;;;4.93;;
36799;SDS011;22752;51.960;5.886;2023-04-20T12:31:38;7.10;;;5.20;;
36799;SDS011;22752;51.960;5.886;2023-04-20T12:34:04;7.00;;;5.20;;
36799;SDS011;22752;51.960;5.886;2023-04-20T12:36:30;8.33;;;5.83;;
36799;SDS011;22752;51.960;5.886;2023-04-20T12:38:56;7.93;;;5.50;;
36799;SDS011;22752;51.960;5.886;2023-04-20T12:41:22;6.77;;;4.87;;
36799;SDS011;22752;51.960;5.886;2023-04-20T12:43:49;5.87;;;4.90;;
36799;SDS011;22752;51.960;5.886;2023-04-20T12:46:15;7.67;;;5.53;;
36799;SDS011;22752;51.960;5.886;2023-04-20T12:48:41;7.93;;;5.67;;
36799;SDS011;22752;51.960;5.886;2023-04-20T12:51:06;7.60;;;5.27;;
36799;SDS011;22752;51.960;5.886;2023-04-20T12:53:32;5.70;;;4.80;;
36799;SDS011;22752;51.960;5.886;2023-04-20T12:55:58;7.05;;;5.15;;
36799;SDS011;22752;51.960;5.886;2023-04-20T12:58:24;8.73;;;5.20;;
36799;SDS011;22752;51.960;5.886;2023-04-20T13:00:49;6.97;;;5.10;;
36799;SDS011;22752;51.960;5.886;2023-04-20T13:03:15;7.27;;;5.23;;
36799;SDS011;22752;51.960;5.886;2023-04-20T13:05:41;7.33;;;5.03;;
36799;SDS011;22752;51.960;5.886;2023-04-20T13:08:08;5.90;;;5.23;;
36799;SDS011;22752;51.960;5.886;2023-04-20T13:10:35;7.83;;;5.43;;
36799;SDS011;22752;51.960;5.886;2023-04-20T13:13:02;8.43;;;5.30;;
36799;SDS011;22752;51.960;5.886;2023-04-20T13:15:28;6.70;;;5.20;;
36799;SDS011;22752;51.960;5.886;2023-04-20T13:17:55;8.53;;;5.87;;
36799;SDS011;22752;51.960;5.886;2023-04-20T13:20:21;8.50;;;5.32;;
36799;SDS011;22752;51.960;5.886;2023-04-20T13:22:47;7.87;;;5.63;;
36799;SDS011;22752;51.960;5.886;2023-04-20T13:25:13;8.80;;;5.30;;
36799;SDS011;22752;51.960;5.886;2023-04-20T13:27:38;8.25;;;5.65;;
36799;SDS011;22752;51.960;5.886;2023-04-20T13:30:04;7.60;;;5.00;;
36799;SDS011;22752;51.960;5.886;2023-04-20T13:32:31;6.47;;;5.10;;
36799;SDS011;22752;51.960;5.886;2023-04-20T13:34:58;7.55;;;5.43;;
36799;SDS011;22752;51.960;5.886;2023-04-20T13:37:23;8.60;;;5.47;;
36799;SDS011;22752;51.960;5.886;2023-04-20T13:39:49;7.53;;;5.55;;
36799;SDS011;22752;51.960;5.886;2023-04-20T13:42:14;7.97;;;5.53;;
36799;SDS011;22752;51.960;5.886;2023-04-20T13:44:40;7.88;;;5.50;;
36799;SDS011;22752;51.960;5.886;2023-04-20T13:47:06;7.22;;;5.55;;
36799;SDS011;22752;51.960;5.886;2023-04-20T13:49:31;9.85;;;5.28;;
36799;SDS011;22752;51.960;5.886;2023-04-20T13:51:57;8.13;;;5.35;;
36799;SDS011;22752;51.960;5.886;2023-04-20T13:54:22;5.93;;;5.00;;
36799;SDS011;22752;51.960;5.886;2023-04-20T13:56:48;6.68;;;4.90;;
36799;SDS011;22752;51.960;5.886;2023-04-20T13:59:14;7.95;;;6.05;;
36799;SDS011;22752;51.960;5.886;2023-04-20T14:01:40;6.70;;;5.63;;
36799;SDS011;22752;51.960;5.886;2023-04-20T14:04:07;10.10;;;5.50;;
36799;SDS011;22752;51.960;5.886;2023-04-20T14:06:33;7.13;;;5.65;;
36799;SDS011;22752;51.960;5.886;2023-04-20T14:08:59;6.57;;;5.33;;
36799;SDS011;22752;51.960;5.886;2023-04-20T14:11:25;9.50;;;6.47;;
36799;SDS011;22752;51.960;5.886;2023-04-20T14:13:50;7.35;;;5.85;;
36799;SDS011;22752;51.960;5.886;2023-04-20T14:16:16;8.17;;;5.70;;
36799;SDS011;22752;51.960;5.886;2023-04-20T14:18:43;8.95;;;5.57;;
36799;SDS011;22752;51.960;5.886;2023-04-20T14:21:09;6.72;;;5.50;;
36799;SDS011;22752;51.960;5.886;2023-04-20T14:23:34;8.48;;;5.72;;
36799;SDS011;22752;51.960;5.886;2023-04-20T14:26:00;13.45;;;5.75;;
36799;SDS011;22752;51.960;5.886;2023-04-20T14:28:27;8.02;;;5.57;;
36799;SDS011;22752;51.960;5.886;2023-04-20T14:30:53;8.13;;;6.22;;
36799;SDS011;22752;51.960;5.886;2023-04-20T14:33:19;7.05;;;5.45;;
36799;SDS011;22752;51.960;5.886;2023-04-20T14:35:45;8.00;;;6.05;;
36799;SDS011;22752;51.960;5.886;2023-04-20T14:38:11;13.75;;;6.22;;
36799;SDS011;22752;51.960;5.886;2023-04-20T14:40:36;6.75;;;5.85;;
36799;SDS011;22752;51.960;5.886;2023-04-20T14:43:02;7.68;;;5.80;;
36799;SDS011;22752;51.960;5.886;2023-04-20T14:45:28;6.72;;;5.78;;
36799;SDS011;22752;51.960;5.886;2023-04-20T14:47:54;8.57;;;6.32;;